createdAt,value
2022-12-28T00:00:37.164Z,6.89
2022-12-28T00:02:08.780Z,5.74
2022-12-28T00:03:40.184Z,6.57
2022-12-28T00:05:11.492Z,9.32
2022-12-28T00:06:42.693Z,9.31
2022-12-28T00:08:14.084Z,8.22
2022-12-28T00:09:46.216Z,8.23
2022-12-28T00:11:27.555Z,7.64
2022-12-28T00:13:01.729Z,8.30
2022-12-28T00:14:33.226Z,6.13
2022-12-28T00:16:04.732Z,6.30
2022-12-28T00:17:36.306Z,6.11
2022-12-28T00:19:07.727Z,5.21
2022-12-28T00:20:39.457Z,5.33
2022-12-28T00:22:11.390Z,6.33
2022-12-28T00:23:42.774Z,6.27
2022-12-28T00:25:14.479Z,3.96
2022-12-28T00:26:45.866Z,6.16
2022-12-28T00:28:17.085Z,6.68
2022-12-28T00:29:50.084Z,8.69
2022-12-28T00:31:21.467Z,7.07
2022-12-28T00:32:52.837Z,6.41
2022-12-28T00:34:24.063Z,6.95
2022-12-28T00:35:55.410Z,5.46
2022-12-28T00:37:26.957Z,6.62
2022-12-28T00:38:58.159Z,5.86
2022-12-28T00:40:29.430Z,5.81
2022-12-28T00:42:01.893Z,7.02
2022-12-28T00:43:33.242Z,5.71
2022-12-28T00:45:04.849Z,7.84
2022-12-28T00:46:36.089Z,4.58
2022-12-28T00:48:07.310Z,6.48
2022-12-28T00:49:39.058Z,4.54
2022-12-28T00:51:10.396Z,6.98
2022-12-28T00:52:41.656Z,5.77
2022-12-28T00:54:13.268Z,5.64
2022-12-28T00:55:44.571Z,7.34
2022-12-28T00:57:15.790Z,6.86
2022-12-28T00:58:47.363Z,6.60
2022-12-28T01:00:18.713Z,5.13
2022-12-28T01:01:50.499Z,7.57
2022-12-28T01:03:21.864Z,4.76
2022-12-28T01:04:53.282Z,6.38
2022-12-28T01:06:24.551Z,6.12
2022-12-28T01:07:55.913Z,7.46
2022-12-28T01:09:27.375Z,7.38
2022-12-28T01:10:58.605Z,6.32
2022-12-28T01:12:34.677Z,7.39
2022-12-28T01:14:09.459Z,5.67
2022-12-28T01:15:40.846Z,6.52
2022-12-28T01:17:12.199Z,4.74
2022-12-28T01:18:43.729Z,5.24
2022-12-28T01:20:15.245Z,5.37
2022-12-28T01:21:46.713Z,7.49
2022-12-28T01:23:18.606Z,6.78
2022-12-28T01:24:49.983Z,6.81
2022-12-28T01:26:21.224Z,6.07
2022-12-28T01:27:52.446Z,7.60
2022-12-28T01:29:23.807Z,4.84
2022-12-28T01:30:55.182Z,6.15
2022-12-28T01:32:26.568Z,5.06
2022-12-28T01:33:57.900Z,7.08
2022-12-28T01:35:29.462Z,6.60
2022-12-28T01:37:00.749Z,4.51
2022-12-28T01:38:32.003Z,5.12
2022-12-28T01:40:03.246Z,6.37
2022-12-28T01:41:34.751Z,5.42
2022-12-28T01:43:10.937Z,5.87
2022-12-28T01:44:42.627Z,6.37
2022-12-28T01:46:13.990Z,5.55
2022-12-28T01:47:45.284Z,8.37
2022-12-28T01:49:16.711Z,8.04
2022-12-28T01:50:48.170Z,6.75
2022-12-28T01:52:19.787Z,5.46
2022-12-28T01:53:51.218Z,6.10
2022-12-28T01:55:22.454Z,5.63
2022-12-28T01:56:53.681Z,8.17
2022-12-28T01:58:25.040Z,6.52
2022-12-28T01:59:56.478Z,7.55
2022-12-28T02:01:27.961Z,6.47
2022-12-28T02:02:59.268Z,7.66
2022-12-28T02:04:30.653Z,5.51
2022-12-28T02:06:03.069Z,6.01
2022-12-28T02:07:34.327Z,4.71
2022-12-28T02:09:05.751Z,6.23
2022-12-28T02:10:44.692Z,5.23
2022-12-28T02:12:16.893Z,6.16
2022-12-28T02:13:48.048Z,5.91
2022-12-28T02:15:23.035Z,8.23
2022-12-28T02:16:54.734Z,7.13
2022-12-28T02:18:26.075Z,7.50
2022-12-28T02:19:57.631Z,6.33
2022-12-28T02:21:28.844Z,7.32
2022-12-28T02:23:00.124Z,6.21
2022-12-28T02:24:31.346Z,6.62
2022-12-28T02:26:02.547Z,7.34
2022-12-28T02:27:33.850Z,5.42
2022-12-28T02:29:05.375Z,7.18
2022-12-28T02:30:36.781Z,5.10
2022-12-28T02:32:08.149Z,5.92
2022-12-28T02:33:39.628Z,6.69
2022-12-28T02:35:11.001Z,8.03
2022-12-28T02:36:42.290Z,6.92
2022-12-28T02:38:13.741Z,5.57
2022-12-28T02:39:45.121Z,7.97
2022-12-28T02:41:16.306Z,7.83
2022-12-28T02:42:47.574Z,7.32
2022-12-28T02:44:18.814Z,6.83
2022-12-28T02:45:50.295Z,4.15
2022-12-28T02:47:21.896Z,5.35
2022-12-28T02:48:53.227Z,7.19
2022-12-28T02:50:24.566Z,5.95
2022-12-28T02:51:55.911Z,6.51
2022-12-28T02:53:27.164Z,5.21
2022-12-28T02:54:58.632Z,4.73
2022-12-28T02:56:29.958Z,6.63
2022-12-28T02:58:01.238Z,5.54
2022-12-28T02:59:32.878Z,5.04
2022-12-28T03:01:04.410Z,6.47
2022-12-28T03:02:35.896Z,5.71
2022-12-28T03:04:07.218Z,6.31
2022-12-28T03:05:43.410Z,5.77
2022-12-28T03:07:14.768Z,6.20
2022-12-28T03:08:46.045Z,6.10
2022-12-28T03:10:17.322Z,7.29
2022-12-28T03:11:48.649Z,6.14
2022-12-28T03:13:25.014Z,5.30
2022-12-28T03:14:56.480Z,7.41
2022-12-28T03:16:27.848Z,7.06
2022-12-28T03:17:59.093Z,7.20
2022-12-28T03:19:30.515Z,7.33
2022-12-28T03:21:01.714Z,4.46
2022-12-28T03:22:32.938Z,7.05
2022-12-28T03:24:04.168Z,6.25
2022-12-28T03:25:35.569Z,7.28
2022-12-28T03:27:06.800Z,6.08
2022-12-28T03:28:38.072Z,6.32
2022-12-28T03:30:09.280Z,5.66
2022-12-28T03:31:40.497Z,7.18
2022-12-28T03:33:11.933Z,5.33
2022-12-28T03:34:43.201Z,4.64
2022-12-28T03:36:15.709Z,4.97
2022-12-28T03:37:47.581Z,5.99
2022-12-28T03:39:18.832Z,5.58
2022-12-28T03:40:50.103Z,5.71
2022-12-28T03:42:21.402Z,6.05
2022-12-28T03:43:52.654Z,5.38
2022-12-28T03:45:45.241Z,6.20
2022-12-28T03:47:18.785Z,4.09
2022-12-28T03:48:50.030Z,5.72
2022-12-28T03:50:21.382Z,4.32
2022-12-28T03:51:52.715Z,6.85
2022-12-28T03:53:23.974Z,5.43
2022-12-28T03:54:55.377Z,5.54
2022-12-28T03:56:26.682Z,4.05
2022-12-28T03:57:57.913Z,5.33
2022-12-28T03:59:29.142Z,4.69
2022-12-28T04:01:00.616Z,5.61
2022-12-28T04:02:31.956Z,5.67
2022-12-28T04:04:03.155Z,4.36
2022-12-28T04:05:34.453Z,4.66
2022-12-28T04:07:05.644Z,4.95
2022-12-28T04:08:36.847Z,4.73
2022-12-28T04:10:08.076Z,5.55
2022-12-28T04:11:39.322Z,4.94
2022-12-28T04:13:10.513Z,4.58
2022-12-28T04:14:41.714Z,5.68
2022-12-28T04:16:13.918Z,6.62
2022-12-28T04:17:45.207Z,5.00
2022-12-28T04:19:16.432Z,2.44
2022-12-28T04:20:47.663Z,3.24
2022-12-28T04:22:18.946Z,3.79
2022-12-28T04:23:50.276Z,4.80
2022-12-28T04:25:21.593Z,4.43
2022-12-28T04:26:52.858Z,5.00
2022-12-28T04:28:24.114Z,3.96
2022-12-28T04:29:55.852Z,7.07
2022-12-28T04:31:27.159Z,5.94
2022-12-28T04:32:58.568Z,4.48
2022-12-28T04:34:29.805Z,4.29
2022-12-28T04:36:01.294Z,4.63
2022-12-28T04:37:32.573Z,6.55
2022-12-28T04:39:03.832Z,4.78
2022-12-28T04:40:35.088Z,3.29
2022-12-28T04:42:06.518Z,4.27
2022-12-28T04:43:37.990Z,8.40
2022-12-28T04:45:09.215Z,6.99
2022-12-28T04:46:40.521Z,4.20
2022-12-28T04:48:11.825Z,4.15
2022-12-28T04:49:43.071Z,3.91
2022-12-28T04:51:14.456Z,5.08
2022-12-28T04:52:45.753Z,5.52
2022-12-28T04:54:17.314Z,5.05
2022-12-28T04:55:48.643Z,5.18
2022-12-28T04:57:19.896Z,3.82
2022-12-28T04:58:51.165Z,6.93
2022-12-28T05:00:22.621Z,4.81
2022-12-28T05:01:54.422Z,4.36
2022-12-28T05:03:25.782Z,4.27
2022-12-28T05:04:57.186Z,5.17
2022-12-28T05:06:28.515Z,4.26
2022-12-28T05:08:00.176Z,4.82
2022-12-28T05:09:31.431Z,5.35
2022-12-28T05:11:02.754Z,4.81
2022-12-28T05:12:33.969Z,3.71
2022-12-28T05:14:05.306Z,4.11
2022-12-28T05:15:36.510Z,6.63
2022-12-28T05:17:07.823Z,3.12
2022-12-28T05:18:39.310Z,3.81
2022-12-28T05:20:10.663Z,4.86
2022-12-28T05:21:42.304Z,3.98
2022-12-28T05:23:13.473Z,3.98
2022-12-28T05:24:44.773Z,4.39
2022-12-28T05:26:16.122Z,4.40
2022-12-28T05:27:47.647Z,4.15
2022-12-28T05:29:19.203Z,5.55
2022-12-28T05:30:50.624Z,6.30
2022-12-28T05:32:22.077Z,5.99
2022-12-28T05:33:53.322Z,5.11
2022-12-28T05:35:24.706Z,4.46
2022-12-28T05:36:56.082Z,3.92
2022-12-28T05:38:27.530Z,3.51
2022-12-28T05:39:58.807Z,3.68
2022-12-28T05:41:30.052Z,3.99
2022-12-28T05:43:01.339Z,7.14
2022-12-28T05:44:32.780Z,4.69
2022-12-28T05:46:04.313Z,5.90
2022-12-28T05:47:35.890Z,5.63
2022-12-28T05:49:07.218Z,5.32
2022-12-28T05:50:38.439Z,4.56
2022-12-28T05:52:10.210Z,4.29
2022-12-28T05:53:41.517Z,5.20
2022-12-28T05:55:12.768Z,5.78
2022-12-28T05:56:44.341Z,4.99
2022-12-28T05:58:15.595Z,5.32
2022-12-28T05:59:46.820Z,7.44
2022-12-28T06:01:18.233Z,3.62
2022-12-28T06:02:49.677Z,3.86
2022-12-28T06:04:21.142Z,3.98
2022-12-28T06:05:52.545Z,4.51
2022-12-28T06:07:24.898Z,3.82
2022-12-28T06:08:56.307Z,3.68
2022-12-28T06:10:27.517Z,5.86
2022-12-28T06:12:04.202Z,4.43
2022-12-28T06:13:35.588Z,5.88
2022-12-28T06:15:06.845Z,4.51
2022-12-28T06:16:38.793Z,4.39
2022-12-28T06:18:10.318Z,5.09
2022-12-28T06:19:41.666Z,4.84
2022-12-28T06:21:13.054Z,3.97
2022-12-28T06:22:44.469Z,7.02
2022-12-28T06:24:15.681Z,5.34
2022-12-28T06:25:47.635Z,4.79
2022-12-28T06:27:19.291Z,6.31
2022-12-28T06:28:50.621Z,3.71
2022-12-28T06:30:22.206Z,4.34
2022-12-28T06:31:53.633Z,4.36
2022-12-28T06:33:24.871Z,3.80
2022-12-28T06:34:56.110Z,5.68
2022-12-28T06:36:27.409Z,3.89
2022-12-28T06:37:58.749Z,4.26
2022-12-28T06:39:30.014Z,6.36
2022-12-28T06:41:13.891Z,5.15
2022-12-28T06:42:45.686Z,5.24
2022-12-28T06:44:16.925Z,5.72
2022-12-28T06:45:48.205Z,5.21
2022-12-28T06:47:19.529Z,5.07
2022-12-28T06:48:50.814Z,4.79
2022-12-28T06:50:22.120Z,5.54
2022-12-28T06:51:53.689Z,4.56
2022-12-28T06:53:25.033Z,4.36
2022-12-28T06:54:56.414Z,5.16
2022-12-28T06:56:27.740Z,5.09
2022-12-28T06:57:59.109Z,3.69
2022-12-28T06:59:30.334Z,5.71
2022-12-28T07:01:01.617Z,4.17
2022-12-28T07:02:33.259Z,5.04
2022-12-28T07:04:04.552Z,6.51
2022-12-28T07:05:36.034Z,7.73
2022-12-28T07:07:07.653Z,3.65
2022-12-28T07:08:39.024Z,5.65
2022-12-28T07:10:10.327Z,5.69
2022-12-28T07:11:41.652Z,5.23
2022-12-28T07:13:12.857Z,6.58
2022-12-28T07:14:44.291Z,4.56
2022-12-28T07:16:15.620Z,4.54
2022-12-28T07:17:47.318Z,4.26
2022-12-28T07:19:18.649Z,4.83
2022-12-28T07:20:50.311Z,6.00
2022-12-28T07:22:21.538Z,6.00
2022-12-28T07:23:52.964Z,6.10
2022-12-28T07:25:24.218Z,4.55
2022-12-28T07:26:55.505Z,4.29
2022-12-28T07:28:26.896Z,4.76
2022-12-28T07:29:58.510Z,4.52
2022-12-28T07:31:30.114Z,5.13
2022-12-28T07:33:01.500Z,4.60
2022-12-28T07:34:32.739Z,4.17
2022-12-28T07:36:04.275Z,5.61
2022-12-28T07:37:35.659Z,3.55
2022-12-28T07:39:06.929Z,5.20
2022-12-28T07:40:38.205Z,5.84
2022-12-28T07:42:09.408Z,5.15
2022-12-28T07:43:41.326Z,6.03
2022-12-28T07:45:12.614Z,4.94
2022-12-28T07:46:44.613Z,4.30
2022-12-28T07:48:16.019Z,4.09
2022-12-28T07:49:47.777Z,3.28
2022-12-28T07:51:24.400Z,4.75
2022-12-28T07:52:55.740Z,4.15
2022-12-28T07:54:54.910Z,4.31
2022-12-28T07:56:26.594Z,4.81
2022-12-28T07:57:57.835Z,6.23
2022-12-28T07:59:30.991Z,3.03
2022-12-28T08:01:02.816Z,4.38
2022-12-28T08:02:34.278Z,4.38
2022-12-28T08:04:05.788Z,5.77
2022-12-28T08:05:37.103Z,4.67
2022-12-28T08:07:08.574Z,5.19
2022-12-28T08:08:39.821Z,4.61
2022-12-28T08:10:11.168Z,3.35
2022-12-28T08:11:42.645Z,3.18
2022-12-28T08:13:14.194Z,4.13
2022-12-28T08:14:45.703Z,3.67
2022-12-28T08:16:17.115Z,5.24
2022-12-28T08:17:48.429Z,4.09
2022-12-28T08:19:19.895Z,3.80
2022-12-28T08:20:56.361Z,4.08
2022-12-28T08:22:27.613Z,4.22
2022-12-28T08:23:59.069Z,4.03
2022-12-28T08:25:30.400Z,2.87
2022-12-28T08:27:01.644Z,3.33
2022-12-28T08:28:32.911Z,3.34
2022-12-28T08:30:04.221Z,4.32
2022-12-28T08:31:35.892Z,4.44
2022-12-28T08:33:07.519Z,3.78
2022-12-28T08:34:38.721Z,3.89
2022-12-28T08:36:25.015Z,3.32
2022-12-28T08:37:56.331Z,5.08
2022-12-28T08:39:27.724Z,5.55
2022-12-28T08:40:59.174Z,4.89
2022-12-28T08:42:30.408Z,4.33
2022-12-28T08:44:01.787Z,4.80
2022-12-28T08:45:33.177Z,3.96
2022-12-28T08:47:04.648Z,3.47
2022-12-28T08:48:36.088Z,4.40
2022-12-28T08:50:07.831Z,5.07
2022-12-28T08:51:39.237Z,3.76
2022-12-28T08:53:10.570Z,3.61
2022-12-28T08:54:42.262Z,4.31
2022-12-28T08:56:13.566Z,4.86
2022-12-28T08:57:44.841Z,3.75
2022-12-28T08:59:16.173Z,4.31
2022-12-28T09:00:47.814Z,4.17
2022-12-28T09:02:19.268Z,3.98
2022-12-28T09:03:50.788Z,2.96
2022-12-28T09:05:22.290Z,4.86
2022-12-28T09:06:53.524Z,4.59
2022-12-28T09:08:24.926Z,4.64
2022-12-28T09:09:56.224Z,5.08
2022-12-28T09:11:27.655Z,5.02
2022-12-28T09:12:59.045Z,3.99
2022-12-28T09:14:31.436Z,4.19
2022-12-28T09:16:03.105Z,3.90
2022-12-28T09:17:34.652Z,4.70
2022-12-28T09:19:05.966Z,4.39
2022-12-28T09:20:39.877Z,4.28
2022-12-28T09:22:14.424Z,5.50
2022-12-28T09:23:47.123Z,4.28
2022-12-28T09:25:18.601Z,3.95
2022-12-28T09:26:50.267Z,3.92
2022-12-28T09:28:21.536Z,5.03
2022-12-28T09:29:52.908Z,4.54
2022-12-28T09:31:24.179Z,4.60
2022-12-28T09:32:55.629Z,5.56
2022-12-28T09:34:36.652Z,5.77
2022-12-28T09:36:08.861Z,4.69
2022-12-28T09:37:40.270Z,4.18
2022-12-28T09:39:11.586Z,3.67
2022-12-28T09:40:48.026Z,3.28
2022-12-28T09:42:19.362Z,4.16
2022-12-28T09:43:51.237Z,4.91
2022-12-28T09:45:22.518Z,4.16
2022-12-28T09:46:53.904Z,4.98
2022-12-28T09:48:25.409Z,4.40
2022-12-28T09:49:56.786Z,4.54
2022-12-28T09:51:29.035Z,5.36
2022-12-28T09:53:00.407Z,6.54
2022-12-28T09:54:31.878Z,5.07
2022-12-28T09:56:04.645Z,4.81
2022-12-28T09:57:35.981Z,6.05
2022-12-28T09:59:07.732Z,5.33
2022-12-28T10:00:39.170Z,3.94
2022-12-28T10:02:10.565Z,4.85
2022-12-28T10:03:42.540Z,4.00
2022-12-28T10:05:13.981Z,6.27
2022-12-28T10:06:45.656Z,6.09
2022-12-28T10:08:16.928Z,5.78
2022-12-28T10:09:48.302Z,6.42
2022-12-28T10:11:19.670Z,5.61
2022-12-28T10:12:50.994Z,5.67
2022-12-28T10:14:22.414Z,3.77
2022-12-28T10:15:53.717Z,4.58
2022-12-28T10:17:25.069Z,5.17
2022-12-28T10:18:58.337Z,5.19
2022-12-28T10:20:30.191Z,5.21
2022-12-28T10:22:01.794Z,4.26
2022-12-28T10:23:33.163Z,5.62
2022-12-28T10:25:04.455Z,4.48
2022-12-28T10:26:37.449Z,5.13
2022-12-28T10:28:08.693Z,4.32
2022-12-28T10:29:40.113Z,3.58
2022-12-28T10:31:16.518Z,4.43
2022-12-28T10:32:47.792Z,4.45
2022-12-28T10:34:19.177Z,4.54
2022-12-28T10:35:50.430Z,4.25
2022-12-28T10:37:21.792Z,4.11
2022-12-28T10:38:53.106Z,4.36
2022-12-28T10:40:24.409Z,4.25
2022-12-28T10:41:55.633Z,3.88
2022-12-28T10:43:27.039Z,4.80
2022-12-28T10:44:58.441Z,4.16
2022-12-28T10:46:30.005Z,4.51
2022-12-28T10:48:01.437Z,3.70
2022-12-28T10:49:32.648Z,4.15
2022-12-28T10:51:04.015Z,3.03
2022-12-28T10:52:36.601Z,3.67
2022-12-28T10:54:07.956Z,3.31
2022-12-28T10:55:39.405Z,4.72
2022-12-28T10:57:10.893Z,3.63
2022-12-28T10:58:42.442Z,3.72
2022-12-28T11:00:13.633Z,3.56
2022-12-28T11:01:45.241Z,2.83
2022-12-28T11:03:16.799Z,4.57
2022-12-28T11:04:54.293Z,4.03
2022-12-28T11:06:27.383Z,4.08
2022-12-28T11:07:59.335Z,2.34
2022-12-28T11:09:30.671Z,3.43
2022-12-28T11:11:02.234Z,2.67
2022-12-28T11:12:33.668Z,3.34
2022-12-28T11:14:04.957Z,2.82
2022-12-28T11:15:36.359Z,2.32
2022-12-28T11:17:07.752Z,2.55
2022-12-28T11:18:39.116Z,2.50
2022-12-28T11:20:10.364Z,2.94
2022-12-28T11:21:41.723Z,2.72
2022-12-28T11:23:13.287Z,2.18
2022-12-28T11:24:44.684Z,2.70
2022-12-28T11:26:15.990Z,2.76
2022-12-28T11:28:02.348Z,2.64
2022-12-28T11:29:33.628Z,4.11
2022-12-28T11:31:04.902Z,3.00
2022-12-28T11:32:36.443Z,3.90
2022-12-28T11:34:07.787Z,4.80
2022-12-28T11:35:39.063Z,3.63
2022-12-28T11:37:10.335Z,1.65
2022-12-28T11:38:41.643Z,3.38
2022-12-28T11:40:13.249Z,2.03
2022-12-28T11:41:56.392Z,2.53
2022-12-28T11:43:50.749Z,3.43
2022-12-28T11:45:22.260Z,3.20
2022-12-28T11:46:53.740Z,6.11
2022-12-28T11:48:25.128Z,2.98
2022-12-28T11:49:56.775Z,2.46
2022-12-28T11:51:28.351Z,2.96
2022-12-28T11:53:00.038Z,3.45
2022-12-28T11:54:31.304Z,2.93
2022-12-28T11:56:02.585Z,3.05
2022-12-28T11:57:33.973Z,2.09
2022-12-28T11:59:05.559Z,3.06
2022-12-28T12:00:37.378Z,4.88
2022-12-28T12:02:08.846Z,3.37
2022-12-28T12:03:40.215Z,2.10
2022-12-28T12:05:11.725Z,2.89
2022-12-28T12:06:43.196Z,2.80
2022-12-28T12:08:15.403Z,2.30
2022-12-28T12:09:48.379Z,3.81
2022-12-28T12:11:20.291Z,3.86
2022-12-28T12:12:52.185Z,3.71
2022-12-28T12:14:23.579Z,2.81
2022-12-28T12:15:55.340Z,4.30
2022-12-28T12:17:26.986Z,2.70
2022-12-28T12:18:58.846Z,3.42
2022-12-28T12:20:30.156Z,3.20
2022-12-28T12:22:01.534Z,3.67
2022-12-28T12:23:32.792Z,3.29
2022-12-28T12:25:04.185Z,3.94
2022-12-28T12:26:35.573Z,4.71
2022-12-28T12:28:07.043Z,3.41
2022-12-28T12:29:38.359Z,5.19
2022-12-28T12:31:15.053Z,3.95
2022-12-28T12:32:51.635Z,3.85
2022-12-28T12:34:23.159Z,3.40
2022-12-28T12:35:55.497Z,3.68
2022-12-28T12:37:27.068Z,3.58
2022-12-28T12:38:58.651Z,4.15
2022-12-28T12:40:29.957Z,2.57
2022-12-28T12:42:01.416Z,4.41
2022-12-28T12:43:33.066Z,3.83
2022-12-28T12:45:04.281Z,6.60
2022-12-28T12:46:35.511Z,5.10
2022-12-28T12:48:06.892Z,4.66
2022-12-28T12:49:38.192Z,4.18
2022-12-28T12:51:09.807Z,5.48
2022-12-28T12:52:42.397Z,4.42
2022-12-28T12:54:14.589Z,4.60
2022-12-28T12:55:46.088Z,4.05
2022-12-28T12:57:17.504Z,3.14
2022-12-28T12:58:50.865Z,4.77
2022-12-28T13:00:22.381Z,5.61
2022-12-28T13:01:54.202Z,5.27
2022-12-28T13:03:25.794Z,4.46
2022-12-28T13:04:57.209Z,4.24
2022-12-28T13:06:28.698Z,3.73
2022-12-28T13:08:00.106Z,4.02
2022-12-28T13:09:31.370Z,4.94
2022-12-28T13:11:02.607Z,4.51
2022-12-28T13:12:34.234Z,4.48
2022-12-28T13:14:05.785Z,4.55
2022-12-28T13:15:37.246Z,4.12
2022-12-28T13:17:08.532Z,7.33
2022-12-28T13:18:45.091Z,6.70
2022-12-28T13:20:17.181Z,5.48
2022-12-28T13:21:48.603Z,5.23
2022-12-28T13:23:20.014Z,2.64
2022-12-28T13:24:51.656Z,4.78
2022-12-28T13:26:23.143Z,5.76
2022-12-28T13:27:54.589Z,6.33
2022-12-28T13:29:26.000Z,6.80
2022-12-28T13:30:57.650Z,4.60
2022-12-28T13:32:34.201Z,5.05
2022-12-28T13:34:09.249Z,5.76
2022-12-28T13:35:41.335Z,5.32
2022-12-28T13:37:14.025Z,6.91
2022-12-28T13:38:46.151Z,5.48
2022-12-28T13:40:23.134Z,4.68
2022-12-28T13:41:55.991Z,4.16
2022-12-28T13:43:27.417Z,6.17
2022-12-28T13:44:58.882Z,5.34
2022-12-28T13:46:30.264Z,5.71
2022-12-28T13:48:01.888Z,5.86
2022-12-28T13:49:33.516Z,4.81
2022-12-28T13:51:04.764Z,5.02
2022-12-28T13:52:36.171Z,4.92
2022-12-28T13:54:07.568Z,5.84
2022-12-28T13:55:39.322Z,4.44
2022-12-28T13:57:44.658Z,4.72
2022-12-28T13:59:17.628Z,5.03
2022-12-28T14:00:49.000Z,5.65
2022-12-28T14:02:20.493Z,4.26
2022-12-28T14:03:52.152Z,5.01
2022-12-28T14:05:23.944Z,5.29
2022-12-28T14:06:56.494Z,4.69
2022-12-28T14:08:28.614Z,4.77
2022-12-28T14:10:00.010Z,4.46
2022-12-28T14:11:31.346Z,4.76
2022-12-28T14:13:02.534Z,5.81
2022-12-28T14:14:33.833Z,4.74
2022-12-28T14:16:05.510Z,4.96
2022-12-28T14:17:38.189Z,4.39
2022-12-28T14:19:09.660Z,6.44
2022-12-28T14:20:40.964Z,6.84
2022-12-28T14:22:14.134Z,6.35
2022-12-28T14:23:45.668Z,5.77
2022-12-28T14:25:17.112Z,4.99
2022-12-28T14:26:48.371Z,5.80
2022-12-28T14:28:19.692Z,6.45
2022-12-28T14:29:50.949Z,6.18
2022-12-28T14:31:27.615Z,5.60
2022-12-28T14:32:59.439Z,4.66
2022-12-28T14:34:30.838Z,5.41
2022-12-28T14:36:02.240Z,4.99
2022-12-28T14:37:39.068Z,4.10
2022-12-28T14:39:10.374Z,5.06
2022-12-28T14:40:41.821Z,4.63
2022-12-28T14:42:13.116Z,4.61
2022-12-28T14:43:44.711Z,4.57
2022-12-28T14:45:16.001Z,4.31
2022-12-28T14:46:54.224Z,5.00
2022-12-28T14:48:25.716Z,5.43
2022-12-28T14:49:57.509Z,5.16
2022-12-28T14:51:28.924Z,4.52
2022-12-28T14:53:00.383Z,5.33
2022-12-28T14:54:31.845Z,5.14
2022-12-28T14:56:09.506Z,4.52
2022-12-28T14:57:40.816Z,4.76
2022-12-28T14:59:12.257Z,4.71
2022-12-28T15:00:43.626Z,4.65
2022-12-28T15:02:15.155Z,3.43
2022-12-28T15:03:46.646Z,3.08
2022-12-28T15:05:18.191Z,3.23
2022-12-28T15:06:49.448Z,3.49
2022-12-28T15:08:20.724Z,5.16
2022-12-28T15:09:52.111Z,3.47
2022-12-28T15:11:23.537Z,4.17
2022-12-28T15:12:55.369Z,4.31
2022-12-28T15:14:26.799Z,4.35
2022-12-28T15:15:58.191Z,3.82
2022-12-28T15:17:33.293Z,3.76
2022-12-28T15:19:05.012Z,5.56
2022-12-28T15:20:36.598Z,4.80
2022-12-28T15:22:08.186Z,5.33
2022-12-28T15:23:39.619Z,3.54
2022-12-28T15:25:11.065Z,4.34
2022-12-28T15:26:42.479Z,3.48
2022-12-28T15:28:13.824Z,3.89
2022-12-28T15:30:04.922Z,3.95
2022-12-28T15:31:37.247Z,4.97
2022-12-28T15:33:08.722Z,3.61
2022-12-28T15:34:40.109Z,4.32
2022-12-28T15:36:16.983Z,5.60
2022-12-28T15:37:48.891Z,4.47
2022-12-28T15:39:20.284Z,4.43
2022-12-28T15:40:51.663Z,5.19
2022-12-28T15:42:23.038Z,4.93
2022-12-28T15:43:54.629Z,4.86
2022-12-28T15:45:25.988Z,5.55
2022-12-28T15:46:57.371Z,4.67
2022-12-28T15:48:28.744Z,4.50
2022-12-28T15:50:00.168Z,4.65
2022-12-28T15:51:31.620Z,4.60
2022-12-28T15:53:03.050Z,4.25
2022-12-28T15:54:34.395Z,5.22
2022-12-28T15:56:05.851Z,4.53
2022-12-28T15:57:37.294Z,3.64
2022-12-28T15:59:08.575Z,4.92
2022-12-28T16:00:45.721Z,3.11
2022-12-28T16:02:19.137Z,3.63
2022-12-28T16:03:50.771Z,3.24
2022-12-28T16:05:22.309Z,4.50
2022-12-28T16:06:53.755Z,5.09
2022-12-28T16:08:25.154Z,3.82
2022-12-28T16:09:56.781Z,3.09
2022-12-28T16:11:28.369Z,3.79
2022-12-28T16:12:59.695Z,4.11
2022-12-28T16:14:31.096Z,5.04
2022-12-28T16:16:02.501Z,3.85
2022-12-28T16:17:33.987Z,5.02
2022-12-28T16:19:05.198Z,5.32
2022-12-28T16:20:36.577Z,4.05
2022-12-28T16:22:07.822Z,4.81
2022-12-28T16:23:44.057Z,3.67
2022-12-28T16:25:15.419Z,4.51
2022-12-28T16:26:46.808Z,6.22
2022-12-28T16:28:18.164Z,3.66
2022-12-28T16:29:53.951Z,4.44
2022-12-28T16:31:28.349Z,5.99
2022-12-28T16:32:59.620Z,5.49
2022-12-28T16:34:30.895Z,5.02
2022-12-28T16:36:02.217Z,4.39
2022-12-28T16:37:33.461Z,4.95
2022-12-28T16:39:04.702Z,3.35
2022-12-28T16:40:36.223Z,3.96
2022-12-28T16:42:07.637Z,3.38
2022-12-28T16:43:39.437Z,3.79
2022-12-28T16:45:10.920Z,2.78
2022-12-28T16:46:42.443Z,2.45
2022-12-28T16:48:14.027Z,3.21
2022-12-28T16:49:46.888Z,4.57
2022-12-28T16:51:18.256Z,3.74
2022-12-28T16:52:49.974Z,4.88
2022-12-28T16:54:21.373Z,3.78
2022-12-28T16:55:52.856Z,4.34
2022-12-28T16:57:24.086Z,5.51
2022-12-28T16:58:55.704Z,5.19
2022-12-28T17:00:27.165Z,3.75
2022-12-28T17:01:58.633Z,3.74
2022-12-28T17:03:30.238Z,3.36
2022-12-28T17:05:01.608Z,2.86
2022-12-28T17:06:33.058Z,2.80
2022-12-28T17:08:04.443Z,3.47
2022-12-28T17:09:35.926Z,4.44
2022-12-28T17:11:07.178Z,4.81
2022-12-28T17:12:38.484Z,3.54
2022-12-28T17:14:09.765Z,5.34
2022-12-28T17:15:41.358Z,3.47
2022-12-28T17:17:12.598Z,3.97
2022-12-28T17:18:43.935Z,4.19
2022-12-28T17:20:15.848Z,3.43
2022-12-28T17:21:47.271Z,2.98
2022-12-28T17:23:18.724Z,2.67
2022-12-28T17:24:50.122Z,4.64
2022-12-28T17:26:21.485Z,5.51
2022-12-28T17:27:52.970Z,3.08
2022-12-28T17:29:24.654Z,3.51
2022-12-28T17:30:55.946Z,4.99
2022-12-28T17:32:27.393Z,4.68
2022-12-28T17:33:59.016Z,3.57
2022-12-28T17:35:30.270Z,3.74
2022-12-28T17:37:02.121Z,2.80
2022-12-28T17:38:33.810Z,4.72
2022-12-28T17:40:05.223Z,3.83
2022-12-28T17:41:36.489Z,5.01
2022-12-28T17:43:08.033Z,5.13
2022-12-28T17:44:39.376Z,3.47
2022-12-28T17:46:10.756Z,4.12
2022-12-28T17:47:42.215Z,5.19
2022-12-28T17:49:13.712Z,2.42
2022-12-28T17:50:45.162Z,3.16
2022-12-28T17:52:16.500Z,4.63
2022-12-28T17:53:47.858Z,3.86
2022-12-28T17:55:19.225Z,3.65
2022-12-28T17:56:50.588Z,3.78
2022-12-28T17:58:21.968Z,3.70
2022-12-28T17:59:53.284Z,3.49
2022-12-28T18:01:24.923Z,5.09
2022-12-28T18:02:57.030Z,4.14
2022-12-28T18:04:29.528Z,3.23
2022-12-28T18:06:00.765Z,3.91
2022-12-28T18:07:32.015Z,4.35
2022-12-28T18:09:03.258Z,4.91
2022-12-28T18:10:34.707Z,4.26
2022-12-28T18:12:05.900Z,5.25
2022-12-28T18:13:37.203Z,4.04
2022-12-28T18:15:08.483Z,3.68
2022-12-28T18:16:40.326Z,4.04
2022-12-28T18:18:11.696Z,3.64
2022-12-28T18:19:44.535Z,3.04
2022-12-28T18:21:21.140Z,4.41
2022-12-28T18:22:52.816Z,3.74
2022-12-28T18:24:24.092Z,3.93
2022-12-28T18:25:55.346Z,3.00
2022-12-28T18:27:33.103Z,3.51
2022-12-28T18:29:04.463Z,4.31
2022-12-28T18:30:36.422Z,4.67
2022-12-28T18:32:07.787Z,3.94
2022-12-28T18:33:39.173Z,2.74
2022-12-28T18:35:10.399Z,4.49
2022-12-28T18:36:41.673Z,4.45
2022-12-28T18:38:13.076Z,3.96
2022-12-28T18:39:44.526Z,3.93
2022-12-28T18:41:21.012Z,4.38
2022-12-28T18:42:52.239Z,5.66
2022-12-28T18:44:23.510Z,4.16
2022-12-28T18:45:54.802Z,3.30
2022-12-28T18:47:26.415Z,4.23
2022-12-28T18:48:57.694Z,4.57
2022-12-28T18:50:29.275Z,4.30
2022-12-28T18:52:00.623Z,3.83
2022-12-28T18:53:32.305Z,4.69
2022-12-28T18:55:03.700Z,4.39
2022-12-28T18:56:35.331Z,5.57
2022-12-28T18:58:06.792Z,4.34
2022-12-28T18:59:38.215Z,4.06
2022-12-28T19:01:16.440Z,3.49
2022-12-28T19:03:04.428Z,5.92
2022-12-28T19:04:36.326Z,4.47
2022-12-28T19:06:08.105Z,3.39
2022-12-28T19:07:42.103Z,3.79
2022-12-28T19:09:17.187Z,3.45
2022-12-28T19:10:48.482Z,3.64
2022-12-28T19:12:19.693Z,3.14
2022-12-28T19:13:51.090Z,4.33
2022-12-28T19:15:27.834Z,4.27
2022-12-28T19:16:59.614Z,3.72
2022-12-28T19:18:35.948Z,2.67
2022-12-28T19:20:07.213Z,3.06
2022-12-28T19:21:38.689Z,3.48
2022-12-28T19:23:10.038Z,4.52
2022-12-28T19:24:41.474Z,5.01
2022-12-28T19:26:13.004Z,4.38
2022-12-28T19:27:44.615Z,5.28
2022-12-28T19:29:15.933Z,2.88
2022-12-28T19:30:47.290Z,3.46
2022-12-28T19:32:18.659Z,3.28
2022-12-28T19:33:50.262Z,3.84
2022-12-28T19:35:36.603Z,5.28
2022-12-28T19:37:08.066Z,3.53
2022-12-28T19:38:39.438Z,2.79
2022-12-28T19:40:10.679Z,2.54
2022-12-28T19:41:47.019Z,2.16
2022-12-28T19:43:18.450Z,4.20
2022-12-28T19:44:49.684Z,4.34
2022-12-28T19:46:21.645Z,3.41
2022-12-28T19:47:52.989Z,3.71
2022-12-28T19:49:24.285Z,3.45
2022-12-28T19:50:55.600Z,2.51
2022-12-28T19:52:26.968Z,2.32
2022-12-28T19:53:58.631Z,2.51
2022-12-28T19:55:29.992Z,3.59
2022-12-28T19:57:01.590Z,3.34
2022-12-28T19:58:35.169Z,3.18
2022-12-28T20:00:07.165Z,2.29
2022-12-28T20:01:39.836Z,2.17
2022-12-28T20:03:11.321Z,1.99
2022-12-28T20:04:48.088Z,2.88
2022-12-28T20:06:19.520Z,3.08
2022-12-28T20:07:50.995Z,2.13
2022-12-28T20:09:27.315Z,2.03
2022-12-28T20:10:58.678Z,2.06
2022-12-28T20:12:30.139Z,2.35
2022-12-28T20:14:01.936Z,2.87
2022-12-28T20:15:33.365Z,2.89
2022-12-28T20:17:04.800Z,4.04
2022-12-28T20:18:36.121Z,3.11
2022-12-28T20:20:07.465Z,3.07
2022-12-28T20:21:38.918Z,3.36
2022-12-28T20:23:10.230Z,2.67
2022-12-28T20:24:41.463Z,3.15